sensor_id;sensor_type;location;lat;lon;timestamp;temperature;humidity
56753;DHT22;42627;42.646;23.642;2022-07-23T00:00:01;18.60;73.60
56753;DHT22;42627;42.646;23.642;2022-07-23T00:02:01;18.50;74.00
56753;DHT22;42627;42.646;23.642;2022-07-23T00:04:02;18.40;74.50
56753;DHT22;42627;42.646;23.642;2022-07-23T00:06:03;18.40;74.70
56753;DHT22;42627;42.646;23.642;2022-07-23T00:08:21;18.40;74.60
56753;DHT22;42627;42.646;23.642;2022-07-23T00:10:46;18.40;74.70
56753;DHT22;42627;42.646;23.642;2022-07-23T00:12:46;18.40;74.70
56753;DHT22;42627;42.646;23.642;2022-07-23T00:14:47;18.40;75.10
56753;DHT22;42627;42.646;23.642;2022-07-23T00:16:48;18.40;75.10
56753;DHT22;42627;42.646;23.642;2022-07-23T00:18:48;18.30;75.10
56753;DHT22;42627;42.646;23.642;2022-07-23T00:20:49;18.40;74.80
56753;DHT22;42627;42.646;23.642;2022-07-23T00:22:52;18.30;75.20
56753;DHT22;42627;42.646;23.642;2022-07-23T00:24:53;18.20;75.60
56753;DHT22;42627;42.646;23.642;2022-07-23T00:26:54;18.20;75.70
56753;DHT22;42627;42.646;23.642;2022-07-23T00:28:54;18.10;76.10
56753;DHT22;42627;42.646;23.642;2022-07-23T00:30:55;18.10;76.40
56753;DHT22;42627;42.646;23.642;2022-07-23T00:33:00;18.10;76.40
56753;DHT22;42627;42.646;23.642;2022-07-23T00:35:01;18.10;76.10
56753;DHT22;42627;42.646;23.642;2022-07-23T00:37:03;18.20;75.80
56753;DHT22;42627;42.646;23.642;2022-07-23T00:39:12;18.20;74.70
56753;DHT22;42627;42.646;23.642;2022-07-23T00:41:13;18.20;74.20
56753;DHT22;42627;42.646;23.642;2022-07-23T00:43:13;18.10;74.10
56753;DHT22;42627;42.646;23.642;2022-07-23T00:45:14;18.10;74.10
56753;DHT22;42627;42.646;23.642;2022-07-23T00:47:15;18.00;74.00
56753;DHT22;42627;42.646;23.642;2022-07-23T00:49:15;18.00;74.20
56753;DHT22;42627;42.646;23.642;2022-07-23T00:51:16;18.00;74.40
56753;DHT22;42627;42.646;23.642;2022-07-23T00:53:17;18.00;75.20
56753;DHT22;42627;42.646;23.642;2022-07-23T00:57:35;17.80;76.70
56753;DHT22;42627;42.646;23.642;2022-07-23T00:59:38;17.70;77.30
56753;DHT22;42627;42.646;23.642;2022-07-23T01:01:39;17.60;77.90
56753;DHT22;42627;42.646;23.642;2022-07-23T01:03:40;17.60;78.30
56753;DHT22;42627;42.646;23.642;2022-07-23T01:05:41;17.50;79.40
56753;DHT22;42627;42.646;23.642;2022-07-23T01:07:42;17.50;79.90
56753;DHT22;42627;42.646;23.642;2022-07-23T01:09:44;17.50;80.10
56753;DHT22;42627;42.646;23.642;2022-07-23T01:12:09;17.50;80.50
56753;DHT22;42627;42.646;23.642;2022-07-23T01:14:28;17.40;80.70
56753;DHT22;42627;42.646;23.642;2022-07-23T01:16:34;17.40;80.90
56753;DHT22;42627;42.646;23.642;2022-07-23T01:18:34;17.30;81.40
56753;DHT22;42627;42.646;23.642;2022-07-23T01:20:36;17.30;81.60
56753;DHT22;42627;42.646;23.642;2022-07-23T01:22:36;17.30;82.00
56753;DHT22;42627;42.646;23.642;2022-07-23T01:24:37;17.40;81.70
56753;DHT22;42627;42.646;23.642;2022-07-23T01:26:39;17.30;81.70
56753;DHT22;42627;42.646;23.642;2022-07-23T01:28:40;17.30;82.40
56753;DHT22;42627;42.646;23.642;2022-07-23T01:30:49;17.40;82.00
56753;DHT22;42627;42.646;23.642;2022-07-23T01:32:50;17.40;82.20
56753;DHT22;42627;42.646;23.642;2022-07-23T01:34:51;17.40;82.20
56753;DHT22;42627;42.646;23.642;2022-07-23T01:36:51;17.40;81.80
56753;DHT22;42627;42.646;23.642;2022-07-23T01:38:52;17.50;81.30
56753;DHT22;42627;42.646;23.642;2022-07-23T01:41:30;17.60;79.90
56753;DHT22;42627;42.646;23.642;2022-07-23T01:44:02;17.60;79.20
56753;DHT22;42627;42.646;23.642;2022-07-23T01:46:14;17.70;78.40
56753;DHT22;42627;42.646;23.642;2022-07-23T01:48:15;17.80;77.90
56753;DHT22;42627;42.646;23.642;2022-07-23T01:50:17;17.70;77.90
56753;DHT22;42627;42.646;23.642;2022-07-23T01:52:17;17.60;78.00
56753;DHT22;42627;42.646;23.642;2022-07-23T01:54:18;17.40;79.10
56753;DHT22;42627;42.646;23.642;2022-07-23T01:56:18;17.10;80.40
56753;DHT22;42627;42.646;23.642;2022-07-23T01:58:21;17.00;81.10
56753;DHT22;42627;42.646;23.642;2022-07-23T02:00:21;16.90;81.50
56753;DHT22;42627;42.646;23.642;2022-07-23T02:02:22;16.80;82.50
56753;DHT22;42627;42.646;23.642;2022-07-23T02:04:24;16.70;82.20
56753;DHT22;42627;42.646;23.642;2022-07-23T02:06:25;16.70;82.20
56753;DHT22;42627;42.646;23.642;2022-07-23T02:08:26;16.60;83.10
56753;DHT22;42627;42.646;23.642;2022-07-23T02:10:45;16.50;84.00
56753;DHT22;42627;42.646;23.642;2022-07-23T02:13:09;16.50;84.60
56753;DHT22;42627;42.646;23.642;2022-07-23T02:15:16;16.60;84.70
56753;DHT22;42627;42.646;23.642;2022-07-23T02:17:17;16.50;85.50
56753;DHT22;42627;42.646;23.642;2022-07-23T02:19:18;16.60;86.00
56753;DHT22;42627;42.646;23.642;2022-07-23T02:21:18;16.60;86.00
56753;DHT22;42627;42.646;23.642;2022-07-23T02:23:19;16.70;85.50
56753;DHT22;42627;42.646;23.642;2022-07-23T02:25:19;16.80;85.10
56753;DHT22;42627;42.646;23.642;2022-07-23T02:27:20;16.90;84.70
56753;DHT22;42627;42.646;23.642;2022-07-23T02:29:30;16.90;85.00
56753;DHT22;42627;42.646;23.642;2022-07-23T02:31:31;17.00;84.10
56753;DHT22;42627;42.646;23.642;2022-07-23T02:33:32;17.10;82.70
56753;DHT22;42627;42.646;23.642;2022-07-23T02:35:33;17.20;81.50
56753;DHT22;42627;42.646;23.642;2022-07-23T02:37:33;17.30;80.90
56753;DHT22;42627;42.646;23.642;2022-07-23T02:39:46;17.20;80.10
56753;DHT22;42627;42.646;23.642;2022-07-23T02:44:51;17.20;79.80
56753;DHT22;42627;42.646;23.642;2022-07-23T02:46:52;17.20;80.00
56753;DHT22;42627;42.646;23.642;2022-07-23T02:48:53;17.20;79.30
56753;DHT22;42627;42.646;23.642;2022-07-23T02:50:53;17.20;79.00
56753;DHT22;42627;42.646;23.642;2022-07-23T02:52:56;17.20;79.90
56753;DHT22;42627;42.646;23.642;2022-07-23T02:54:57;17.10;80.00
56753;DHT22;42627;42.646;23.642;2022-07-23T02:56:57;17.10;80.80
56753;DHT22;42627;42.646;23.642;2022-07-23T02:59:13;17.00;81.30
56753;DHT22;42627;42.646;23.642;2022-07-23T03:01:14;17.10;80.80
56753;DHT22;42627;42.646;23.642;2022-07-23T03:03:15;17.10;79.70
56753;DHT22;42627;42.646;23.642;2022-07-23T03:05:15;17.00;78.40
56753;DHT22;42627;42.646;23.642;2022-07-23T03:07:17;17.00;77.80
56753;DHT22;42627;42.646;23.642;2022-07-23T03:12:26;16.90;79.90
56753;DHT22;42627;42.646;23.642;2022-07-23T03:14:35;16.80;80.00
56753;DHT22;42627;42.646;23.642;2022-07-23T03:16:36;16.80;80.60
56753;DHT22;42627;42.646;23.642;2022-07-23T03:18:37;16.80;79.90
56753;DHT22;42627;42.646;23.642;2022-07-23T03:20:37;16.70;80.40
56753;DHT22;42627;42.646;23.642;2022-07-23T03:22:38;16.60;81.10
56753;DHT22;42627;42.646;23.642;2022-07-23T03:24:39;16.60;81.20
56753;DHT22;42627;42.646;23.642;2022-07-23T03:26:55;16.40;82.20
56753;DHT22;42627;42.646;23.642;2022-07-23T03:29:00;16.20;84.00
56753;DHT22;42627;42.646;23.642;2022-07-23T03:31:03;16.10;84.70
56753;DHT22;42627;42.646;23.642;2022-07-23T03:33:04;16.10;85.20
56753;DHT22;42627;42.646;23.642;2022-07-23T03:35:05;16.10;85.00
56753;DHT22;42627;42.646;23.642;2022-07-23T03:37:06;16.00;85.30
56753;DHT22;42627;42.646;23.642;2022-07-23T03:39:09;16.10;85.00
56753;DHT22;42627;42.646;23.642;2022-07-23T03:41:37;16.10;85.30
56753;DHT22;42627;42.646;23.642;2022-07-23T03:43:47;15.90;87.30
56753;DHT22;42627;42.646;23.642;2022-07-23T03:45:48;15.90;87.80
56753;DHT22;42627;42.646;23.642;2022-07-23T03:47:50;15.90;88.50
56753;DHT22;42627;42.646;23.642;2022-07-23T03:49:50;16.00;88.70
56753;DHT22;42627;42.646;23.642;2022-07-23T03:51:51;16.00;89.20
56753;DHT22;42627;42.646;23.642;2022-07-23T03:53:52;16.00;89.50
56753;DHT22;42627;42.646;23.642;2022-07-23T03:55:52;15.90;89.80
56753;DHT22;42627;42.646;23.642;2022-07-23T03:58:01;16.00;90.10
56753;DHT22;42627;42.646;23.642;2022-07-23T04:00:06;15.90;90.60
56753;DHT22;42627;42.646;23.642;2022-07-23T04:02:08;15.80;91.10
56753;DHT22;42627;42.646;23.642;2022-07-23T04:04:09;15.80;91.80
56753;DHT22;42627;42.646;23.642;2022-07-23T04:06:09;15.90;91.50
56753;DHT22;42627;42.646;23.642;2022-07-23T04:08:38;15.90;91.70
56753;DHT22;42627;42.646;23.642;2022-07-23T04:10:51;15.90;91.80
56753;DHT22;42627;42.646;23.642;2022-07-23T04:30:16;16.90;90.50
56753;DHT22;42627;42.646;23.642;2022-07-23T04:32:16;16.90;90.90
56753;DHT22;42627;42.646;23.642;2022-07-23T04:34:17;17.00;90.70
56753;DHT22;42627;42.646;23.642;2022-07-23T04:36:18;17.20;90.50
56753;DHT22;42627;42.646;23.642;2022-07-23T04:38:19;17.30;90.40
56753;DHT22;42627;42.646;23.642;2022-07-23T04:40:19;17.40;90.10
56753;DHT22;42627;42.646;23.642;2022-07-23T04:42:20;17.60;89.10
56753;DHT22;42627;42.646;23.642;2022-07-23T04:44:51;17.80;87.60
56753;DHT22;42627;42.646;23.642;2022-07-23T04:47:20;18.00;86.20
56753;DHT22;42627;42.646;23.642;2022-07-23T04:49:21;18.20;84.20
56753;DHT22;42627;42.646;23.642;2022-07-23T04:51:21;18.30;83.70
56753;DHT22;42627;42.646;23.642;2022-07-23T04:53:22;18.40;83.90
56753;DHT22;42627;42.646;23.642;2022-07-23T04:55:23;18.40;83.80
56753;DHT22;42627;42.646;23.642;2022-07-23T04:57:23;18.50;83.00
56753;DHT22;42627;42.646;23.642;2022-07-23T04:59:24;18.60;82.20
56753;DHT22;42627;42.646;23.642;2022-07-23T05:01:25;18.70;81.40
56753;DHT22;42627;42.646;23.642;2022-07-23T05:05:36;19.00;80.50
56753;DHT22;42627;42.646;23.642;2022-07-23T05:07:37;19.10;80.30
56753;DHT22;42627;42.646;23.642;2022-07-23T05:09:37;19.20;80.50
56753;DHT22;42627;42.646;23.642;2022-07-23T05:11:38;19.30;79.80
56753;DHT22;42627;42.646;23.642;2022-07-23T05:13:38;19.30;80.60
56753;DHT22;42627;42.646;23.642;2022-07-23T05:15:39;19.30;79.80
56753;DHT22;42627;42.646;23.642;2022-07-23T05:23:22;19.50;79.50
56753;DHT22;42627;42.646;23.642;2022-07-23T05:25:23;19.50;78.30
56753;DHT22;42627;42.646;23.642;2022-07-23T05:27:24;19.50;78.80
56753;DHT22;42627;42.646;23.642;2022-07-23T05:29:24;19.60;78.30
56753;DHT22;42627;42.646;23.642;2022-07-23T05:31:25;19.60;78.30
56753;DHT22;42627;42.646;23.642;2022-07-23T05:33:26;19.60;77.10
56753;DHT22;42627;42.646;23.642;2022-07-23T05:35:26;19.60;77.10
56753;DHT22;42627;42.646;23.642;2022-07-23T05:37:28;19.70;77.30
56753;DHT22;42627;42.646;23.642;2022-07-23T05:39:29;19.60;77.30
56753;DHT22;42627;42.646;23.642;2022-07-23T05:41:30;19.70;77.40
56753;DHT22;42627;42.646;23.642;2022-07-23T05:43:30;19.70;77.10
56753;DHT22;42627;42.646;23.642;2022-07-23T05:45:31;19.70;77.00
56753;DHT22;42627;42.646;23.642;2022-07-23T05:47:46;19.70;77.30
56753;DHT22;42627;42.646;23.642;2022-07-23T05:49:53;19.80;78.00
56753;DHT22;42627;42.646;23.642;2022-07-23T05:52:08;19.90;77.60
56753;DHT22;42627;42.646;23.642;2022-07-23T05:54:09;19.90;76.50
56753;DHT22;42627;42.646;23.642;2022-07-23T05:56:10;20.10;75.10
56753;DHT22;42627;42.646;23.642;2022-07-23T05:58:10;20.10;74.70
56753;DHT22;42627;42.646;23.642;2022-07-23T06:00:13;20.20;74.80
56753;DHT22;42627;42.646;23.642;2022-07-23T06:02:13;20.20;74.10
56753;DHT22;42627;42.646;23.642;2022-07-23T06:04:14;20.40;73.20
56753;DHT22;42627;42.646;23.642;2022-07-23T06:06:15;20.50;73.10
56753;DHT22;42627;42.646;23.642;2022-07-23T06:08:16;20.60;72.90
56753;DHT22;42627;42.646;23.642;2022-07-23T06:10:16;20.70;71.70
56753;DHT22;42627;42.646;23.642;2022-07-23T06:12:17;20.80;71.40
56753;DHT22;42627;42.646;23.642;2022-07-23T06:14:18;20.80;71.70
56753;DHT22;42627;42.646;23.642;2022-07-23T06:16:18;20.90;72.10
56753;DHT22;42627;42.646;23.642;2022-07-23T06:18:41;20.90;70.40
56753;DHT22;42627;42.646;23.642;2022-07-23T06:23:19;21.10;70.20
56753;DHT22;42627;42.646;23.642;2022-07-23T06:25:20;21.20;68.60
56753;DHT22;42627;42.646;23.642;2022-07-23T06:27:20;21.30;68.50
56753;DHT22;42627;42.646;23.642;2022-07-23T06:29:21;21.40;69.20
56753;DHT22;42627;42.646;23.642;2022-07-23T06:31:22;21.50;69.20
56753;DHT22;42627;42.646;23.642;2022-07-23T06:33:22;21.60;69.10
56753;DHT22;42627;42.646;23.642;2022-07-23T06:35:23;21.70;68.40
56753;DHT22;42627;42.646;23.642;2022-07-23T06:39:34;21.80;67.40
56753;DHT22;42627;42.646;23.642;2022-07-23T06:41:35;21.80;66.90
56753;DHT22;42627;42.646;23.642;2022-07-23T06:43:36;21.90;67.10
56753;DHT22;42627;42.646;23.642;2022-07-23T06:45:36;22.00;67.70
56753;DHT22;42627;42.646;23.642;2022-07-23T06:47:43;22.10;67.50
56753;DHT22;42627;42.646;23.642;2022-07-23T06:50:08;22.20;66.00
56753;DHT22;42627;42.646;23.642;2022-07-23T06:52:47;22.30;65.60
56753;DHT22;42627;42.646;23.642;2022-07-23T06:54:47;22.40;65.70
56753;DHT22;42627;42.646;23.642;2022-07-23T06:56:48;22.50;66.20
56753;DHT22;42627;42.646;23.642;2022-07-23T06:58:49;22.50;66.40
56753;DHT22;42627;42.646;23.642;2022-07-23T07:00:49;22.70;66.40
56753;DHT22;42627;42.646;23.642;2022-07-23T07:02:50;22.80;65.90
56753;DHT22;42627;42.646;23.642;2022-07-23T07:04:51;22.90;66.20
56753;DHT22;42627;42.646;23.642;2022-07-23T07:09:08;23.10;65.00
56753;DHT22;42627;42.646;23.642;2022-07-23T07:11:09;23.20;64.50
56753;DHT22;42627;42.646;23.642;2022-07-23T07:13:10;23.30;64.20
56753;DHT22;42627;42.646;23.642;2022-07-23T07:15:10;23.50;63.90
56753;DHT22;42627;42.646;23.642;2022-07-23T07:17:12;23.50;63.80
56753;DHT22;42627;42.646;23.642;2022-07-23T07:19:12;23.60;63.20
56753;DHT22;42627;42.646;23.642;2022-07-23T07:21:13;23.60;61.40
56753;DHT22;42627;42.646;23.642;2022-07-23T07:23:18;23.70;61.70
56753;DHT22;42627;42.646;23.642;2022-07-23T07:25:23;23.70;61.00
56753;DHT22;42627;42.646;23.642;2022-07-23T07:27:29;23.80;60.80
56753;DHT22;42627;42.646;23.642;2022-07-23T07:29:30;23.90;60.10
56753;DHT22;42627;42.646;23.642;2022-07-23T07:31:31;24.10;59.20
56753;DHT22;42627;42.646;23.642;2022-07-23T07:33:31;24.10;58.70
56753;DHT22;42627;42.646;23.642;2022-07-23T07:35:32;24.10;58.50
56753;DHT22;42627;42.646;23.642;2022-07-23T07:37:33;24.20;58.20
56753;DHT22;42627;42.646;23.642;2022-07-23T07:39:33;24.20;58.70
56753;DHT22;42627;42.646;23.642;2022-07-23T07:41:43;24.30;58.50
56753;DHT22;42627;42.646;23.642;2022-07-23T07:43:44;24.40;58.90
56753;DHT22;42627;42.646;23.642;2022-07-23T07:45:44;24.40;58.10
56753;DHT22;42627;42.646;23.642;2022-07-23T07:47:45;24.40;58.20
56753;DHT22;42627;42.646;23.642;2022-07-23T07:49:46;24.50;57.70
56753;DHT22;42627;42.646;23.642;2022-07-23T07:51:55;24.60;58.00
56753;DHT22;42627;42.646;23.642;2022-07-23T07:54:27;24.70;57.60
56753;DHT22;42627;42.646;23.642;2022-07-23T07:56:32;24.80;57.20
56753;DHT22;42627;42.646;23.642;2022-07-23T07:58:33;24.90;57.60
56753;DHT22;42627;42.646;23.642;2022-07-23T08:00:33;25.00;56.50
56753;DHT22;42627;42.646;23.642;2022-07-23T08:02:45;25.00;55.40
56753;DHT22;42627;42.646;23.642;2022-07-23T08:04:45;25.20;57.20
56753;DHT22;42627;42.646;23.642;2022-07-23T08:06:46;25.30;56.80
56753;DHT22;42627;42.646;23.642;2022-07-23T08:08:47;25.40;56.50
56753;DHT22;42627;42.646;23.642;2022-07-23T08:10:48;25.50;57.40
56753;DHT22;42627;42.646;23.642;2022-07-23T08:12:52;25.60;55.80
56753;DHT22;42627;42.646;23.642;2022-07-23T08:14:53;25.70;55.60
56753;DHT22;42627;42.646;23.642;2022-07-23T08:16:54;25.80;56.20
56753;DHT22;42627;42.646;23.642;2022-07-23T08:18:54;25.90;55.20
56753;DHT22;42627;42.646;23.642;2022-07-23T08:20:55;26.00;54.50
56753;DHT22;42627;42.646;23.642;2022-07-23T08:23:17;26.10;55.80
56753;DHT22;42627;42.646;23.642;2022-07-23T08:25:47;26.20;54.80
56753;DHT22;42627;42.646;23.642;2022-07-23T08:28:03;26.20;54.60
56753;DHT22;42627;42.646;23.642;2022-07-23T09:32:02;28.60;47.50
56753;DHT22;42627;42.646;23.642;2022-07-23T09:34:10;28.70;46.10
56753;DHT22;42627;42.646;23.642;2022-07-23T09:36:11;28.80;43.50
56753;DHT22;42627;42.646;23.642;2022-07-23T09:38:13;28.90;45.30
56753;DHT22;42627;42.646;23.642;2022-07-23T20:43:13;24.30;59.10
56753;DHT22;42627;42.646;23.642;2022-07-23T20:45:14;24.20;59.10
56753;DHT22;42627;42.646;23.642;2022-07-23T20:47:15;24.20;59.10
56753;DHT22;42627;42.646;23.642;2022-07-23T20:49:17;24.10;58.70
